KALN/ALN METAR and TAF weather

Enter ICAO airport designator
Station Type Date Time Source
KALN METAR 2018/12/10 23:50 UTC NOAA

KALN 102350Z 24006KT 10SM SKC M02/M05 A3029


Station Type Date Time Source
KALN Decoded METAR 2018/12/10 23:50 UTC NOAA

Alton/St. Louis, St. Louis Regional Airport, IL, United States (KALN) 38-54N 090-03W
Dec 10, 2018 - 06:50 PM EST / 2018.12.10 2350 UTC
Wind: from the WSW (240 degrees) at 7 MPH (6 KT):0
Visibility: 10 mile(s):0
Sky conditions: clear
Temperature: 28 F (-2 C)
Windchill: 21 F (-6 C):1
Dew Point: 23 F (-5 C)
Relative Humidity: 79%
Pressure (altimeter): 30.29 in. Hg (1025 hPa)
ob: KALN 102350Z 24006KT 10SM SKC M02/M05 A3029
cycle: 0

Station Type Date Time Source
KALN TAF UTC NOAA

Error!


Example: see airport list